sensor_id;sensor_type;location;lat;lon;timestamp;pressure;altitude;pressure_sealevel;temperature;humidity
8627;BME280;4351;51.422;6.794;2022-12-10T00:01:41;98354.06;;;0.44;100.00
8627;BME280;4351;51.422;6.794;2022-12-10T00:04:10;98348.44;;;0.50;100.00
8627;BME280;4351;51.422;6.794;2022-12-10T00:06:39;98363.16;;;0.40;100.00
8627;BME280;4351;51.422;6.794;2022-12-10T00:09:09;98372.22;;;0.36;100.00
8627;BME280;4351;51.422;6.794;2022-12-10T00:11:41;98374.81;;;0.37;100.00
8627;BME280;4351;51.422;6.794;2022-12-10T00:14:11;98369.31;;;0.40;100.00
8627;BME280;4351;51.422;6.794;2022-12-10T00:16:41;98373.09;;;0.36;100.00
8627;BME280;4351;51.422;6.794;2022-12-10T00:19:09;98380.44;;;0.31;100.00
8627;BME280;4351;51.422;6.794;2022-12-10T00:21:37;98374.88;;;0.36;100.00
8627;BME280;4351;51.422;6.794;2022-12-10T00:24:06;98371.91;;;0.26;100.00
8627;BME280;4351;51.422;6.794;2022-12-10T00:26:36;98369.06;;;0.29;100.00
8627;BME280;4351;51.422;6.794;2022-12-10T00:29:09;98371.81;;;0.27;100.00
8627;BME280;4351;51.422;6.794;2022-12-10T00:31:38;98373.06;;;0.20;100.00
8627;BME280;4351;51.422;6.794;2022-12-10T00:34:07;98372.59;;;0.13;100.00
8627;BME280;4351;51.422;6.794;2022-12-10T00:36:37;98383.34;;;0.10;100.00
8627;BME280;4351;51.422;6.794;2022-12-10T00:39:05;98378.72;;;0.14;100.00
8627;BME280;4351;51.422;6.794;2022-12-10T00:41:33;98381.13;;;0.18;100.00
8627;BME280;4351;51.422;6.794;2022-12-10T00:44:01;98387.97;;;0.06;100.00
8627;BME280;4351;51.422;6.794;2022-12-10T00:46:32;98395.22;;;0.03;100.00
8627;BME280;4351;51.422;6.794;2022-12-10T00:49:01;98397.44;;;-0.06;100.00
8627;BME280;4351;51.422;6.794;2022-12-10T00:51:30;98399.22;;;-0.06;100.00
8627;BME280;4351;51.422;6.794;2022-12-10T00:53:59;98395.81;;;-0.08;100.00
8627;BME280;4351;51.422;6.794;2022-12-10T00:56:28;98402.88;;;-0.25;100.00
8627;BME280;4351;51.422;6.794;2022-12-10T00:58:56;98408.38;;;-0.12;100.00
8627;BME280;4351;51.422;6.794;2022-12-10T01:01:27;98411.19;;;-0.15;100.00
8627;BME280;4351;51.422;6.794;2022-12-10T01:03:58;98413.47;;;-0.25;100.00
8627;BME280;4351;51.422;6.794;2022-12-10T01:06:28;98412.63;;;-0.26;100.00
8627;BME280;4351;51.422;6.794;2022-12-10T01:08:58;98407.94;;;-0.20;100.00
8627;BME280;4351;51.422;6.794;2022-12-10T01:11:29;98403.66;;;-0.23;100.00
8627;BME280;4351;51.422;6.794;2022-12-10T01:13:58;98415.44;;;-0.29;100.00
8627;BME280;4351;51.422;6.794;2022-12-10T01:16:26;98418.00;;;-0.27;100.00
8627;BME280;4351;51.422;6.794;2022-12-10T01:18:57;98420.56;;;-0.26;100.00
8627;BME280;4351;51.422;6.794;2022-12-10T01:21:27;98414.09;;;-0.20;100.00
8627;BME280;4351;51.422;6.794;2022-12-10T01:23:56;98416.41;;;-0.14;100.00
8627;BME280;4351;51.422;6.794;2022-12-10T01:26:27;98418.34;;;-0.17;100.00
8627;BME280;4351;51.422;6.794;2022-12-10T01:28:56;98414.78;;;-0.16;100.00
8627;BME280;4351;51.422;6.794;2022-12-10T01:31:27;98425.19;;;-0.29;100.00
8627;BME280;4351;51.422;6.794;2022-12-10T01:33:56;98435.16;;;-0.35;100.00
8627;BME280;4351;51.422;6.794;2022-12-10T01:36:28;98431.41;;;-0.30;100.00
8627;BME280;4351;51.422;6.794;2022-12-10T01:38:57;98434.13;;;-0.32;100.00
8627;BME280;4351;51.422;6.794;2022-12-10T01:41:27;98435.25;;;-0.36;100.00
8627;BME280;4351;51.422;6.794;2022-12-10T01:43:58;98437.66;;;-0.31;100.00
8627;BME280;4351;51.422;6.794;2022-12-10T01:46:28;98442.50;;;-0.40;100.00
8627;BME280;4351;51.422;6.794;2022-12-10T01:48:59;98449.59;;;-0.40;100.00
8627;BME280;4351;51.422;6.794;2022-12-10T01:51:32;98462.91;;;-0.42;100.00
8627;BME280;4351;51.422;6.794;2022-12-10T01:54:03;98452.00;;;-0.36;100.00
8627;BME280;4351;51.422;6.794;2022-12-10T01:56:36;98457.13;;;-0.32;100.00
8627;BME280;4351;51.422;6.794;2022-12-10T01:59:05;98466.81;;;-0.49;100.00
8627;BME280;4351;51.422;6.794;2022-12-10T02:01:40;98461.84;;;-0.55;100.00
8627;BME280;4351;51.422;6.794;2022-12-10T02:04:26;98452.56;;;-0.47;100.00
8627;BME280;4351;51.422;6.794;2022-12-10T02:06:59;98459.50;;;-0.44;100.00
8627;BME280;4351;51.422;6.794;2022-12-10T02:09:34;98459.72;;;-0.49;100.00
8627;BME280;4351;51.422;6.794;2022-12-10T02:12:10;98467.03;;;-0.54;100.00
8627;BME280;4351;51.422;6.794;2022-12-10T02:14:45;98468.38;;;-0.45;100.00
8627;BME280;4351;51.422;6.794;2022-12-10T02:17:20;98460.88;;;-0.54;100.00
8627;BME280;4351;51.422;6.794;2022-12-10T02:20:02;98467.13;;;-0.55;100.00
8627;BME280;4351;51.422;6.794;2022-12-10T02:22:36;98473.44;;;-0.58;100.00
8627;BME280;4351;51.422;6.794;2022-12-10T02:25:07;98476.00;;;-0.56;100.00
8627;BME280;4351;51.422;6.794;2022-12-10T02:27:42;98471.03;;;-0.63;100.00
8627;BME280;4351;51.422;6.794;2022-12-10T02:30:13;98463.84;;;-0.61;100.00
8627;BME280;4351;51.422;6.794;2022-12-10T02:32:43;98474.75;;;-0.67;100.00
8627;BME280;4351;51.422;6.794;2022-12-10T02:35:16;98473.19;;;-0.71;100.00
8627;BME280;4351;51.422;6.794;2022-12-10T02:37:49;98484.09;;;-0.77;100.00
8627;BME280;4351;51.422;6.794;2022-12-10T02:40:22;98480.38;;;-0.73;100.00
8627;BME280;4351;51.422;6.794;2022-12-10T02:42:52;98482.22;;;-0.75;100.00
8627;BME280;4351;51.422;6.794;2022-12-10T02:45:25;98471.66;;;-0.75;100.00
8627;BME280;4351;51.422;6.794;2022-12-10T02:47:59;98470.09;;;-0.79;100.00
8627;BME280;4351;51.422;6.794;2022-12-10T02:50:33;98483.00;;;-0.73;100.00
8627;BME280;4351;51.422;6.794;2022-12-10T02:53:03;98485.50;;;-0.70;100.00
8627;BME280;4351;51.422;6.794;2022-12-10T02:55:51;98476.31;;;-0.63;100.00
8627;BME280;4351;51.422;6.794;2022-12-10T02:58:27;98474.31;;;-0.57;100.00
8627;BME280;4351;51.422;6.794;2022-12-10T03:01:06;98480.91;;;-0.66;100.00
8627;BME280;4351;51.422;6.794;2022-12-10T03:03:43;98483.34;;;-0.62;100.00
8627;BME280;4351;51.422;6.794;2022-12-10T03:06:18;98485.03;;;-0.61;100.00
8627;BME280;4351;51.422;6.794;2022-12-10T03:08:52;98476.41;;;-0.64;100.00
8627;BME280;4351;51.422;6.794;2022-12-10T03:11:23;98470.31;;;-0.49;100.00
8627;BME280;4351;51.422;6.794;2022-12-10T03:13:55;98483.88;;;-0.55;100.00
8627;BME280;4351;51.422;6.794;2022-12-10T03:16:30;98478.59;;;-0.55;100.00
8627;BME280;4351;51.422;6.794;2022-12-10T03:19:03;98474.59;;;-0.46;100.00
8627;BME280;4351;51.422;6.794;2022-12-10T03:21:33;98471.03;;;-0.45;100.00
8627;BME280;4351;51.422;6.794;2022-12-10T03:24:07;98468.22;;;-0.42;100.00
8627;BME280;4351;51.422;6.794;2022-12-10T03:26:36;98471.31;;;-0.33;100.00
8627;BME280;4351;51.422;6.794;2022-12-10T03:29:06;98467.44;;;-0.44;100.00
8627;BME280;4351;51.422;6.794;2022-12-10T03:31:37;98479.84;;;-0.44;100.00
8627;BME280;4351;51.422;6.794;2022-12-10T03:34:08;98482.25;;;-0.40;100.00
8627;BME280;4351;51.422;6.794;2022-12-10T03:36:38;98478.50;;;-0.36;100.00
8627;BME280;4351;51.422;6.794;2022-12-10T03:39:07;98476.22;;;-0.43;100.00
8627;BME280;4351;51.422;6.794;2022-12-10T03:41:35;98475.75;;;-0.34;100.00
8627;BME280;4351;51.422;6.794;2022-12-10T03:44:03;98477.78;;;-0.39;100.00
8627;BME280;4351;51.422;6.794;2022-12-10T03:46:31;98471.88;;;-0.27;100.00
8627;BME280;4351;51.422;6.794;2022-12-10T03:49:01;98464.28;;;-0.35;100.00
8627;BME280;4351;51.422;6.794;2022-12-10T03:51:29;98459.63;;;-0.29;100.00
8627;BME280;4351;51.422;6.794;2022-12-10T03:53:57;98455.72;;;-0.22;100.00
8627;BME280;4351;51.422;6.794;2022-12-10T03:56:25;98447.44;;;-0.16;100.00
8627;BME280;4351;51.422;6.794;2022-12-10T03:58:53;98451.34;;;-0.23;100.00
8627;BME280;4351;51.422;6.794;2022-12-10T04:01:21;98454.63;;;-0.18;100.00
8627;BME280;4351;51.422;6.794;2022-12-10T04:03:49;98448.94;;;-0.28;100.00
8627;BME280;4351;51.422;6.794;2022-12-10T04:06:19;98448.56;;;-0.20;100.00
8627;BME280;4351;51.422;6.794;2022-12-10T04:08:48;98445.13;;;-0.22;100.00
8627;BME280;4351;51.422;6.794;2022-12-10T04:11:25;98439.25;;;-0.11;100.00
8627;BME280;4351;51.422;6.794;2022-12-10T04:13:53;98448.22;;;-0.14;100.00
8627;BME280;4351;51.422;6.794;2022-12-10T04:16:39;98439.09;;;-0.08;100.00
8627;BME280;4351;51.422;6.794;2022-12-10T04:19:09;98440.28;;;-0.14;100.00
8627;BME280;4351;51.422;6.794;2022-12-10T04:21:40;98438.72;;;-0.18;100.00
8627;BME280;4351;51.422;6.794;2022-12-10T04:24:28;98431.03;;;-0.06;100.00
8627;BME280;4351;51.422;6.794;2022-12-10T04:27:12;98433.78;;;-0.08;100.00
8627;BME280;4351;51.422;6.794;2022-12-10T04:29:40;98439.75;;;-0.20;100.00
8627;BME280;4351;51.422;6.794;2022-12-10T04:32:08;98427.47;;;-0.05;100.00
8627;BME280;4351;51.422;6.794;2022-12-10T04:34:36;98424.63;;;-0.02;100.00
8627;BME280;4351;51.422;6.794;2022-12-10T04:37:06;98424.53;;;-0.17;100.00
8627;BME280;4351;51.422;6.794;2022-12-10T04:39:34;98422.06;;;-0.04;100.00
8627;BME280;4351;51.422;6.794;2022-12-10T04:42:02;98429.50;;;-0.10;100.00
8627;BME280;4351;51.422;6.794;2022-12-10T04:44:31;98425.16;;;-0.12;100.00
8627;BME280;4351;51.422;6.794;2022-12-10T04:46:59;98416.31;;;-0.12;100.00
8627;BME280;4351;51.422;6.794;2022-12-10T04:49:27;98411.06;;;0.04;100.00
8627;BME280;4351;51.422;6.794;2022-12-10T04:51:55;98421.09;;;-0.19;100.00
8627;BME280;4351;51.422;6.794;2022-12-10T04:54:24;98421.09;;;-0.19;100.00
8627;BME280;4351;51.422;6.794;2022-12-10T04:56:53;98409.25;;;-0.12;100.00
8627;BME280;4351;51.422;6.794;2022-12-10T04:59:21;98417.25;;;-0.13;100.00
8627;BME280;4351;51.422;6.794;2022-12-10T05:01:49;98423.59;;;-0.16;100.00
8627;BME280;4351;51.422;6.794;2022-12-10T05:04:18;98420.44;;;-0.06;100.00
8627;BME280;4351;51.422;6.794;2022-12-10T05:06:48;98416.84;;;-0.05;100.00
8627;BME280;4351;51.422;6.794;2022-12-10T05:09:16;98422.50;;;-0.12;100.00
8627;BME280;4351;51.422;6.794;2022-12-10T05:11:46;98419.84;;;-0.12;100.00
8627;BME280;4351;51.422;6.794;2022-12-10T05:14:15;98416.38;;;0.04;100.00
8627;BME280;4351;51.422;6.794;2022-12-10T05:16:43;98402.06;;;0.07;100.00
8627;BME280;4351;51.422;6.794;2022-12-10T05:19:11;98405.66;;;0.06;100.00
8627;BME280;4351;51.422;6.794;2022-12-10T05:21:39;98405.56;;;0.07;100.00
8627;BME280;4351;51.422;6.794;2022-12-10T05:24:25;98388.94;;;0.21;100.00
8627;BME280;4351;51.422;6.794;2022-12-10T05:26:55;98395.50;;;0.14;100.00
8627;BME280;4351;51.422;6.794;2022-12-10T05:29:24;98389.50;;;0.10;100.00
8627;BME280;4351;51.422;6.794;2022-12-10T05:31:52;98388.56;;;0.11;100.00
8627;BME280;4351;51.422;6.794;2022-12-10T05:34:20;98387.97;;;0.06;100.00
8627;BME280;4351;51.422;6.794;2022-12-10T05:36:47;98408.28;;;-0.10;100.00
8627;BME280;4351;51.422;6.794;2022-12-10T05:39:15;98400.94;;;-0.05;100.00
8627;BME280;4351;51.422;6.794;2022-12-10T05:41:43;98387.44;;;0.16;100.00
8627;BME280;4351;51.422;6.794;2022-12-10T05:44:13;98398.59;;;0.06;100.00
8627;BME280;4351;51.422;6.794;2022-12-10T05:46:41;98403.69;;;-0.07;100.00
8627;BME280;4351;51.422;6.794;2022-12-10T05:49:09;98403.75;;;-0.08;100.00
8627;BME280;4351;51.422;6.794;2022-12-10T05:51:37;98393.28;;;0.06;100.00
8627;BME280;4351;51.422;6.794;2022-12-10T05:54:06;98392.06;;;0.12;100.00
8627;BME280;4351;51.422;6.794;2022-12-10T05:56:36;98389.44;;;0.12;100.00
8627;BME280;4351;51.422;6.794;2022-12-10T05:59:04;98391.06;;;0.15;100.00
8627;BME280;4351;51.422;6.794;2022-12-10T06:01:39;98396.09;;;0.03;100.00
8627;BME280;4351;51.422;6.794;2022-12-10T06:04:08;98396.09;;;0.03;100.00
8627;BME280;4351;51.422;6.794;2022-12-10T06:06:38;98392.75;;;0.16;100.00
8627;BME280;4351;51.422;6.794;2022-12-10T06:09:10;98390.28;;;0.13;100.00
8627;BME280;4351;51.422;6.794;2022-12-10T06:11:40;98396.69;;;0.08;100.00
8627;BME280;4351;51.422;6.794;2022-12-10T06:14:09;98396.88;;;0.21;100.00
8627;BME280;4351;51.422;6.794;2022-12-10T06:16:39;98397.91;;;0.19;100.00
8627;BME280;4351;51.422;6.794;2022-12-10T06:19:08;98399.00;;;0.15;100.00
8627;BME280;4351;51.422;6.794;2022-12-10T06:21:36;98392.75;;;0.16;100.00
8627;BME280;4351;51.422;6.794;2022-12-10T06:24:05;98403.53;;;0.13;100.00
8627;BME280;4351;51.422;6.794;2022-12-10T06:26:33;98407.72;;;0.17;100.00
8627;BME280;4351;51.422;6.794;2022-12-10T06:29:01;98402.53;;;0.15;100.00
8627;BME280;4351;51.422;6.794;2022-12-10T06:31:31;98401.56;;;0.16;100.00
8627;BME280;4351;51.422;6.794;2022-12-10T06:34:00;98403.88;;;0.06;100.00
8627;BME280;4351;51.422;6.794;2022-12-10T06:36:28;98401.66;;;0.15;100.00
8627;BME280;4351;51.422;6.794;2022-12-10T06:38:56;98401.31;;;0.21;100.00
8627;BME280;4351;51.422;6.794;2022-12-10T06:41:25;98399.97;;;0.30;100.00
8627;BME280;4351;51.422;6.794;2022-12-10T06:43:52;98400.81;;;0.30;100.00
8627;BME280;4351;51.422;6.794;2022-12-10T06:46:25;98400.47;;;0.37;100.00
8627;BME280;4351;51.422;6.794;2022-12-10T06:48:54;98410.91;;;0.40;100.00
8627;BME280;4351;51.422;6.794;2022-12-10T06:51:23;98408.53;;;0.35;100.00
8627;BME280;4351;51.422;6.794;2022-12-10T06:53:52;98403.91;;;0.39;100.00
8627;BME280;4351;51.422;6.794;2022-12-10T06:56:21;98415.53;;;0.36;100.00
8627;BME280;4351;51.422;6.794;2022-12-10T06:58:49;98419.47;;;0.45;100.00
8627;BME280;4351;51.422;6.794;2022-12-10T07:01:18;98422.97;;;0.45;100.00
8627;BME280;4351;51.422;6.794;2022-12-10T07:03:48;98429.47;;;0.24;100.00
8627;BME280;4351;51.422;6.794;2022-12-10T07:06:17;98432.91;;;0.26;100.00
8627;BME280;4351;51.422;6.794;2022-12-10T07:08:49;98423.22;;;0.41;100.00
8627;BME280;4351;51.422;6.794;2022-12-10T07:11:19;98419.56;;;0.43;100.00
8627;BME280;4351;51.422;6.794;2022-12-10T07:13:48;98411.75;;;0.56;100.00
8627;BME280;4351;51.422;6.794;2022-12-10T07:16:19;98425.22;;;0.37;100.00
8627;BME280;4351;51.422;6.794;2022-12-10T07:18:48;98434.25;;;0.33;100.00
8627;BME280;4351;51.422;6.794;2022-12-10T07:21:19;98439.47;;;0.18;100.00
8627;BME280;4351;51.422;6.794;2022-12-10T07:23:50;98436.91;;;0.33;100.00
8627;BME280;4351;51.422;6.794;2022-12-10T07:26:19;98429.47;;;0.40;100.00
8627;BME280;4351;51.422;6.794;2022-12-10T07:28:48;98465.13;;;0.18;100.00
8627;BME280;4351;51.422;6.794;2022-12-10T07:31:19;98472.84;;;0.22;100.00
8627;BME280;4351;51.422;6.794;2022-12-10T07:33:48;98466.84;;;0.19;100.00
8627;BME280;4351;51.422;6.794;2022-12-10T07:36:16;98475.34;;;0.26;100.00
8627;BME280;4351;51.422;6.794;2022-12-10T07:38:44;98471.47;;;0.31;100.00
8627;BME280;4351;51.422;6.794;2022-12-10T07:41:15;98479.16;;;0.20;100.00
8627;BME280;4351;51.422;6.794;2022-12-10T07:43:44;98480.16;;;0.35;100.00
8627;BME280;4351;51.422;6.794;2022-12-10T07:46:15;98477.50;;;0.35;100.00
8627;BME280;4351;51.422;6.794;2022-12-10T07:48:45;98482.22;;;0.46;100.00
8627;BME280;4351;51.422;6.794;2022-12-10T07:51:17;98482.38;;;0.43;100.00
8627;BME280;4351;51.422;6.794;2022-12-10T07:53:47;98493.91;;;0.42;100.00
8627;BME280;4351;51.422;6.794;2022-12-10T07:56:16;98502.28;;;0.34;100.00
8627;BME280;4351;51.422;6.794;2022-12-10T07:58:45;98503.69;;;0.41;100.00
8627;BME280;4351;51.422;6.794;2022-12-10T08:01:15;98505.63;;;0.38;100.00
8627;BME280;4351;51.422;6.794;2022-12-10T08:03:43;98517.69;;;0.27;100.00
8627;BME280;4351;51.422;6.794;2022-12-10T08:06:13;98537.56;;;0.02;100.00
8627;BME280;4351;51.422;6.794;2022-12-10T08:08:43;98530.28;;;0.06;100.00
8627;BME280;4351;51.422;6.794;2022-12-10T08:11:12;98524.66;;;0.12;100.00
8627;BME280;4351;51.422;6.794;2022-12-10T08:13:42;98517.25;;;0.19;100.00
8627;BME280;4351;51.422;6.794;2022-12-10T08:16:13;98526.59;;;0.26;100.00
8627;BME280;4351;51.422;6.794;2022-12-10T08:18:42;98536.91;;;0.15;100.00
8627;BME280;4351;51.422;6.794;2022-12-10T08:21:12;98559.56;;;-0.31;100.00
8627;BME280;4351;51.422;6.794;2022-12-10T08:23:40;98564.22;;;-0.19;100.00
8627;BME280;4351;51.422;6.794;2022-12-10T08:26:10;98559.00;;;-0.03;100.00
8627;BME280;4351;51.422;6.794;2022-12-10T08:28:38;98563.59;;;-0.06;100.00
8627;BME280;4351;51.422;6.794;2022-12-10T08:31:09;98569.53;;;-0.01;100.00
8627;BME280;4351;51.422;6.794;2022-12-10T08:33:38;98553.41;;;0.20;100.00
8627;BME280;4351;51.422;6.794;2022-12-10T08:36:08;98585.09;;;-0.30;100.00
8627;BME280;4351;51.422;6.794;2022-12-10T08:38:37;98590.34;;;-0.29;100.00
8627;BME280;4351;51.422;6.794;2022-12-10T08:41:06;98578.25;;;-0.17;100.00
8627;BME280;4351;51.422;6.794;2022-12-10T08:43:34;98582.47;;;-0.13;100.00
8627;BME280;4351;51.422;6.794;2022-12-10T08:46:03;98575.91;;;-0.05;100.00
8627;BME280;4351;51.422;6.794;2022-12-10T08:48:33;98597.56;;;-0.32;100.00
8627;BME280;4351;51.422;6.794;2022-12-10T08:51:01;98576.69;;;-0.03;100.00
8627;BME280;4351;51.422;6.794;2022-12-10T08:53:30;98593.94;;;-0.12;100.00
8627;BME280;4351;51.422;6.794;2022-12-10T08:55:58;98601.31;;;-0.19;100.00
8627;BME280;4351;51.422;6.794;2022-12-10T08:58:26;98606.31;;;-0.13;100.00
8627;BME280;4351;51.422;6.794;2022-12-10T09:00:54;98630.41;;;-0.54;100.00
8627;BME280;4351;51.422;6.794;2022-12-10T09:03:23;98632.53;;;-0.43;100.00
8627;BME280;4351;51.422;6.794;2022-12-10T09:05:52;98618.41;;;-0.25;100.00
8627;BME280;4351;51.422;6.794;2022-12-10T09:08:20;98624.47;;;-0.40;100.00
8627;BME280;4351;51.422;6.794;2022-12-10T09:10:48;98638.38;;;-0.54;100.00
8627;BME280;4351;51.422;6.794;2022-12-10T09:13:16;98639.81;;;-0.29;100.00
8627;BME280;4351;51.422;6.794;2022-12-10T09:15:49;98644.09;;;-0.44;100.00
8627;BME280;4351;51.422;6.794;2022-12-10T09:18:18;98645.22;;;-0.31;100.00
8627;BME280;4351;51.422;6.794;2022-12-10T09:20:46;98653.69;;;-0.42;100.00
8627;BME280;4351;51.422;6.794;2022-12-10T09:23:15;98654.31;;;-0.37;100.00
8627;BME280;4351;51.422;6.794;2022-12-10T09:25:43;98654.47;;;-0.40;100.00
8627;BME280;4351;51.422;6.794;2022-12-10T09:28:11;98653.38;;;-0.36;100.00
8627;BME280;4351;51.422;6.794;2022-12-10T09:30:39;98655.34;;;-0.21;100.00
8627;BME280;4351;51.422;6.794;2022-12-10T09:33:07;98654.94;;;-0.31;100.00
8627;BME280;4351;51.422;6.794;2022-12-10T09:35:39;98652.63;;;-0.20;100.00
8627;BME280;4351;51.422;6.794;2022-12-10T09:38:10;98655.94;;;-0.34;100.00
8627;BME280;4351;51.422;6.794;2022-12-10T09:40:44;98662.25;;;-0.37;100.00
8627;BME280;4351;51.422;6.794;2022-12-10T09:43:17;98660.16;;;-0.30;100.00
8627;BME280;4351;51.422;6.794;2022-12-10T09:45:55;98653.63;;;-0.22;100.00
8627;BME280;4351;51.422;6.794;2022-12-10T09:48:30;98657.81;;;-0.36;100.00
8627;BME280;4351;51.422;6.794;2022-12-10T09:51:05;98654.56;;;-0.24;100.00
8627;BME280;4351;51.422;6.794;2022-12-10T09:53:38;98637.53;;;0.00;100.00
8627;BME280;4351;51.422;6.794;2022-12-10T09:56:17;98643.34;;;0.07;100.00
8627;BME280;4351;51.422;6.794;2022-12-10T09:58:48;98651.25;;;-0.09;100.00
8627;BME280;4351;51.422;6.794;2022-12-10T10:01:19;98650.47;;;-0.12;100.00
8627;BME280;4351;51.422;6.794;2022-12-10T10:03:50;98635.72;;;0.01;100.00
8627;BME280;4351;51.422;6.794;2022-12-10T10:06:20;98641.41;;;-0.07;100.00
8627;BME280;4351;51.422;6.794;2022-12-10T10:08:51;98628.75;;;-0.02;100.00
8627;BME280;4351;51.422;6.794;2022-12-10T10:11:24;98646.00;;;-0.29;100.00
8627;BME280;4351;51.422;6.794;2022-12-10T10:13:57;98642.66;;;-0.15;100.00
8627;BME280;4351;51.422;6.794;2022-12-10T10:16:30;98643.03;;;-0.22;100.00
8627;BME280;4351;51.422;6.794;2022-12-10T10:19:01;98636.59;;;0.01;100.00
8627;BME280;4351;51.422;6.794;2022-12-10T10:21:33;98634.06;;;-0.02;100.00
8627;BME280;4351;51.422;6.794;2022-12-10T10:24:03;98628.84;;;0.14;100.00
8627;BME280;4351;51.422;6.794;2022-12-10T10:26:39;98628.38;;;0.24;100.00
8627;BME280;4351;51.422;6.794;2022-12-10T10:29:10;98629.25;;;0.24;100.00
8627;BME280;4351;51.422;6.794;2022-12-10T10:31:40;98619.34;;;0.28;100.00
8627;BME280;4351;51.422;6.794;2022-12-10T10:34:14;98634.56;;;0.06;100.00
8627;BME280;4351;51.422;6.794;2022-12-10T10:36:43;98619.72;;;0.20;100.00
8627;BME280;4351;51.422;6.794;2022-12-10T10:39:25;98628.38;;;0.24;100.00
8627;BME280;4351;51.422;6.794;2022-12-10T10:41:57;98614.06;;;0.44;100.00
8627;BME280;4351;51.422;6.794;2022-12-10T10:44:33;98627.97;;;0.31;100.00
8627;BME280;4351;51.422;6.794;2022-12-10T10:47:02;98627.28;;;0.28;100.00
8627;BME280;4351;51.422;6.794;2022-12-10T10:49:32;98642.53;;;0.06;100.00
8627;BME280;4351;51.422;6.794;2022-12-10T10:52:05;98637.81;;;0.11;100.00
8627;BME280;4351;51.422;6.794;2022-12-10T10:54:35;98635.94;;;0.31;100.00
8627;BME280;4351;51.422;6.794;2022-12-10T10:57:12;98649.22;;;0.14;100.00
8627;BME280;4351;51.422;6.794;2022-12-10T10:59:42;98651.81;;;0.15;100.00
8627;BME280;4351;51.422;6.794;2022-12-10T11:02:19;98638.78;;;0.28;100.00
8627;BME280;4351;51.422;6.794;2022-12-10T11:04:49;98630.78;;;0.46;100.00
8627;BME280;4351;51.422;6.794;2022-12-10T11:07:25;98627.97;;;0.49;100.00
8627;BME280;4351;51.422;6.794;2022-12-10T11:09:54;98629.50;;;0.53;100.00
8627;BME280;4351;51.422;6.794;2022-12-10T11:12:38;98636.94;;;0.47;100.00
8627;BME280;4351;51.422;6.794;2022-12-10T11:15:30;98613.00;;;0.64;100.00
8627;BME280;4351;51.422;6.794;2022-12-10T11:18:00;98630.22;;;0.57;100.00
8627;BME280;4351;51.422;6.794;2022-12-10T11:20:30;98636.16;;;0.44;100.00
8627;BME280;4351;51.422;6.794;2022-12-10T11:23:09;98635.00;;;0.50;100.00
8627;BME280;4351;51.422;6.794;2022-12-10T11:25:45;98628.69;;;0.69;100.00
8627;BME280;4351;51.422;6.794;2022-12-10T11:28:31;98641.88;;;0.71;100.00
8627;BME280;4351;51.422;6.794;2022-12-10T11:31:13;98626.88;;;0.87;100.00
8627;BME280;4351;51.422;6.794;2022-12-10T11:33:50;98619.94;;;1.01;100.00
8627;BME280;4351;51.422;6.794;2022-12-10T11:36:27;98619.00;;;1.02;100.00
8627;BME280;4351;51.422;6.794;2022-12-10T11:39:04;98625.66;;;0.93;100.00
8627;BME280;4351;51.422;6.794;2022-12-10T11:41:39;98640.97;;;0.88;100.00
8627;BME280;4351;51.422;6.794;2022-12-10T11:44:17;98637.66;;;1.00;100.00
8627;BME280;4351;51.422;6.794;2022-12-10T11:47:12;98635.59;;;1.06;100.00
8627;BME280;4351;51.422;6.794;2022-12-10T11:49:56;98640.03;;;0.89;100.00
8627;BME280;4351;51.422;6.794;2022-12-10T11:52:41;98662.28;;;0.70;100.00
8627;BME280;4351;51.422;6.794;2022-12-10T11:55:22;98657.31;;;0.80;100.00
8627;BME280;4351;51.422;6.794;2022-12-10T11:58:03;98652.56;;;0.87;100.00
8627;BME280;4351;51.422;6.794;2022-12-10T12:00:40;98653.50;;;1.02;100.00
8627;BME280;4351;51.422;6.794;2022-12-10T12:03:24;98661.94;;;0.76;100.00
8627;BME280;4351;51.422;6.794;2022-12-10T12:06:06;98658.78;;;0.86;100.00
8627;BME280;4351;51.422;6.794;2022-12-10T12:08:44;98657.53;;;0.93;100.00
8627;BME280;4351;51.422;6.794;2022-12-10T12:11:33;98671.13;;;0.87;100.00
8627;BME280;4351;51.422;6.794;2022-12-10T12:14:08;98674.03;;;0.82;100.00
8627;BME280;4351;51.422;6.794;2022-12-10T12:16:47;98688.69;;;0.38;100.00
8627;BME280;4351;51.422;6.794;2022-12-10T12:19:19;98661.94;;;0.76;100.00
8627;BME280;4351;51.422;6.794;2022-12-10T12:21:50;98663.16;;;0.87;100.00
8627;BME280;4351;51.422;6.794;2022-12-10T12:24:21;98666.75;;;0.86;100.00
8627;BME280;4351;51.422;6.794;2022-12-10T12:26:53;98660.09;;;0.95;100.00
8627;BME280;4351;51.422;6.794;2022-12-10T12:29:28;98682.19;;;0.61;100.00
8627;BME280;4351;51.422;6.794;2022-12-10T12:32:10;98677.78;;;0.78;100.00
8627;BME280;4351;51.422;6.794;2022-12-10T12:34:47;98664.88;;;0.88;100.00
8627;BME280;4351;51.422;6.794;2022-12-10T12:37:29;98655.06;;;1.06;100.00
8627;BME280;4351;51.422;6.794;2022-12-10T12:40:07;98667.28;;;0.93;100.00
8627;BME280;4351;51.422;6.794;2022-12-10T12:42:42;98682.41;;;0.74;100.00
8627;BME280;4351;51.422;6.794;2022-12-10T12:45:13;98678.81;;;0.75;100.00
8627;BME280;4351;51.422;6.794;2022-12-10T12:47:48;98686.78;;;0.75;100.00
8627;BME280;4351;51.422;6.794;2022-12-10T12:50:27;98672.25;;;0.99;100.00
8627;BME280;4351;51.422;6.794;2022-12-10T12:52:58;98678.56;;;0.80;100.00
8627;BME280;4351;51.422;6.794;2022-12-10T12:55:32;98673.84;;;1.03;100.00
8627;BME280;4351;51.422;6.794;2022-12-10T12:58:14;98683.25;;;0.75;100.00
8627;BME280;4351;51.422;6.794;2022-12-10T13:00:46;98693.94;;;0.73;100.00
8627;BME280;4351;51.422;6.794;2022-12-10T13:03:28;98690.38;;;0.74;100.00
8627;BME280;4351;51.422;6.794;2022-12-10T13:06:12;98677.75;;;0.96;100.00
8627;BME280;4351;51.422;6.794;2022-12-10T13:08:46;98680.31;;;0.97;100.00
8627;BME280;4351;51.422;6.794;2022-12-10T13:11:18;98683.06;;;0.96;100.00
8627;BME280;4351;51.422;6.794;2022-12-10T13:14:12;98682.19;;;0.95;100.00
8627;BME280;4351;51.422;6.794;2022-12-10T13:16:50;98682.28;;;0.94;100.00
8627;BME280;4351;51.422;6.794;2022-12-10T13:19:29;98672.97;;;1.02;100.00
8627;BME280;4351;51.422;6.794;2022-12-10T13:22:08;98683.50;;;1.04;100.00
8627;BME280;4351;51.422;6.794;2022-12-10T13:24:46;98690.41;;;0.90;100.00
8627;BME280;4351;51.422;6.794;2022-12-10T13:27:18;98677.59;;;1.15;100.00
8627;BME280;4351;51.422;6.794;2022-12-10T13:29:52;98681.38;;;1.11;100.00
8627;BME280;4351;51.422;6.794;2022-12-10T13:32:23;98684.75;;;0.97;100.00
8627;BME280;4351;51.422;6.794;2022-12-10T13:35:18;98681.38;;;1.11;100.00
8627;BME280;4351;51.422;6.794;2022-12-10T13:37:55;98691.31;;;1.07;100.00
8627;BME280;4351;51.422;6.794;2022-12-10T13:40:36;98702.09;;;1.04;100.00
8627;BME280;4351;51.422;6.794;2022-12-10T13:43:28;98699.84;;;0.96;100.00